Indian Mound, Tennessee
Current Conditions -  °F | °C
As of 5:58 PM on Wednesday 17 Dec 2014 (Local Time) from KHOP Reporting Station
Scattered Clouds Scattered Clouds  
Wind Chill: 33°   Ceiling: Unl
Heat Index: 37°   Visibility: 10mi
Dew Point: 27°   Wind: 5mph
Humidity: 67%   Direction: 320°NW
Pressure: 30.28"   Gusts: NA
Location:  36.5°N, 87.69°W
Report Text: KHOP 172358Z AUTO 32004KT 10SM SCT220 03/M03 A3028 RMK AO2 SLP260 T00261029 10047 20024 50008
Loading
Personal Weather Stations






























Interactive Weather Map New forecast layout! Learn more

10-Day Weather Forecast

Advertisements
Track Severe Weather on mobile